createdAt,value
2018-09-29T00:00:55.762Z,0.00
2018-09-29T00:01:55.800Z,0.00
2018-09-29T00:02:55.828Z,0.00
2018-09-29T00:03:55.860Z,0.00
2018-09-29T00:04:55.944Z,0.00
2018-09-29T00:05:55.926Z,0.00
2018-09-29T00:06:55.957Z,0.00
2018-09-29T00:07:55.992Z,0.00
2018-09-29T00:08:56.026Z,0.00
2018-09-29T00:09:56.057Z,0.00
2018-09-29T00:10:56.092Z,0.00
2018-09-29T00:11:56.124Z,0.00
2018-09-29T00:12:56.155Z,0.00
2018-09-29T00:13:56.191Z,0.00
2018-09-29T00:14:56.221Z,0.00
2018-09-29T00:15:56.254Z,0.00
2018-09-29T00:16:56.288Z,0.00
2018-09-29T00:17:56.324Z,0.00
2018-09-29T00:18:56.353Z,0.00
2018-09-29T00:19:56.386Z,0.00
2018-09-29T00:20:56.422Z,0.00
2018-09-29T00:21:56.452Z,0.00
2018-09-29T00:22:56.485Z,0.00
2018-09-29T00:23:56.519Z,0.00
2018-09-29T00:24:56.553Z,0.00
2018-09-29T00:25:56.584Z,0.00
2018-09-29T00:26:56.616Z,0.00
2018-09-29T00:27:56.650Z,0.00
2018-09-29T00:28:56.684Z,0.00
2018-09-29T00:29:56.716Z,0.00
2018-09-29T00:30:56.748Z,0.00
2018-09-29T00:31:56.781Z,0.00
2018-09-29T00:32:56.815Z,0.00
2018-09-29T00:33:56.848Z,0.00
2018-09-29T00:34:56.883Z,0.00
2018-09-29T00:35:56.914Z,0.00
2018-09-29T00:36:56.947Z,0.00
2018-09-29T00:37:56.980Z,0.00
2018-09-29T00:38:57.012Z,0.00
2018-09-29T00:39:57.046Z,0.00
2018-09-29T00:40:57.079Z,0.00
2018-09-29T00:41:57.112Z,0.00
2018-09-29T00:42:57.145Z,0.00
2018-09-29T00:43:57.178Z,0.00
2018-09-29T00:44:57.212Z,0.00
2018-09-29T00:45:57.245Z,0.00
2018-09-29T00:46:57.276Z,0.00
2018-09-29T00:47:57.310Z,0.00
2018-09-29T00:48:57.343Z,0.00
2018-09-29T00:49:57.375Z,0.00
2018-09-29T00:50:57.408Z,0.00
2018-09-29T00:51:57.442Z,0.00
2018-09-29T00:52:57.475Z,0.00
2018-09-29T00:53:57.508Z,0.00
2018-09-29T00:54:57.541Z,0.00
2018-09-29T00:55:57.576Z,0.00
2018-09-29T00:56:57.608Z,0.00
2018-09-29T00:57:57.645Z,0.00
2018-09-29T00:58:57.672Z,0.00
2018-09-29T00:59:57.706Z,0.00
2018-09-29T01:00:57.739Z,0.00
2018-09-29T01:01:57.772Z,0.00
2018-09-29T01:02:57.805Z,0.00
2018-09-29T01:03:57.838Z,0.00
2018-09-29T01:04:57.871Z,0.00
2018-09-29T01:05:57.904Z,0.00
2018-09-29T01:06:57.938Z,0.00
2018-09-29T01:07:57.969Z,0.00
2018-09-29T01:08:58.003Z,0.00
2018-09-29T01:09:58.040Z,0.00
2018-09-29T01:10:58.069Z,0.00
2018-09-29T01:11:58.102Z,0.00
2018-09-29T01:12:58.136Z,0.00
2018-09-29T01:13:58.168Z,0.00
2018-09-29T01:14:58.202Z,0.00
2018-09-29T01:15:58.234Z,0.00
2018-09-29T01:16:58.268Z,0.00
2018-09-29T01:17:58.303Z,0.00
2018-09-29T01:18:58.332Z,0.00
2018-09-29T01:19:58.367Z,0.00
2018-09-29T01:20:58.399Z,0.00
2018-09-29T01:21:58.432Z,0.00
2018-09-29T01:22:58.465Z,0.00
2018-09-29T01:23:58.499Z,0.00
2018-09-29T01:24:58.533Z,0.00
2018-09-29T01:25:58.568Z,0.00
2018-09-29T01:26:58.596Z,0.00
2018-09-29T01:27:58.629Z,0.00
2018-09-29T01:28:58.663Z,0.00
2018-09-29T01:29:58.697Z,0.00
2018-09-29T01:30:58.728Z,0.00
2018-09-29T01:31:58.761Z,0.00
2018-09-29T01:32:58.794Z,0.00
2018-09-29T01:33:58.827Z,0.00
2018-09-29T01:34:58.860Z,0.00
2018-09-29T01:35:58.892Z,0.00
2018-09-29T01:36:58.925Z,0.00
2018-09-29T01:37:58.959Z,0.00
2018-09-29T01:38:58.993Z,0.00
2018-09-29T01:39:59.024Z,0.00
2018-09-29T01:40:59.063Z,0.00
2018-09-29T01:41:59.090Z,0.00
2018-09-29T01:42:59.121Z,0.00
2018-09-29T01:43:59.155Z,0.00
2018-09-29T01:44:59.187Z,0.00
2018-09-29T01:45:59.220Z,0.00
2018-09-29T01:46:59.258Z,0.00
2018-09-29T01:47:59.285Z,0.00
2018-09-29T01:48:59.318Z,0.00
2018-09-29T01:49:59.354Z,0.00
2018-09-29T01:50:59.382Z,0.00
2018-09-29T01:51:59.414Z,0.00
2018-09-29T01:52:59.448Z,0.00
2018-09-29T01:53:59.483Z,0.00
2018-09-29T01:54:59.512Z,0.00
2018-09-29T01:55:59.544Z,0.00
2018-09-29T01:56:59.578Z,0.00
2018-09-29T01:57:59.610Z,0.00
2018-09-29T01:58:59.644Z,0.00
2018-09-29T01:59:59.675Z,0.00
2018-09-29T02:00:59.707Z,0.00
2018-09-29T02:01:59.740Z,0.00
2018-09-29T02:02:59.771Z,0.00
2018-09-29T02:03:59.804Z,0.00
2018-09-29T02:04:59.838Z,0.00
2018-09-29T02:05:59.868Z,0.00
2018-09-29T02:06:59.900Z,0.00
2018-09-29T02:07:59.996Z,0.00
2018-09-29T02:08:59.967Z,0.00
2018-09-29T02:10:00.000Z,0.00
2018-09-29T02:11:00.029Z,0.00
2018-09-29T02:12:00.095Z,0.00
2018-09-29T02:13:00.095Z,0.00
2018-09-29T02:14:00.127Z,0.00
2018-09-29T02:15:00.159Z,0.00
2018-09-29T02:16:00.190Z,0.00
2018-09-29T02:17:00.225Z,0.00
2018-09-29T02:18:00.256Z,0.00
2018-09-29T02:19:00.288Z,0.00
2018-09-29T02:20:00.320Z,0.00
2018-09-29T02:21:00.351Z,0.00
2018-09-29T02:22:00.383Z,0.00
2018-09-29T02:23:00.415Z,0.00
2018-09-29T02:24:00.447Z,0.00
2018-09-29T02:25:00.479Z,0.00
2018-09-29T02:26:00.512Z,0.00
2018-09-29T02:27:00.543Z,0.00
2018-09-29T02:28:00.575Z,0.00
2018-09-29T02:29:00.673Z,0.00
2018-09-29T02:30:00.643Z,0.00
2018-09-29T02:31:00.673Z,0.00
2018-09-29T02:32:00.704Z,0.00
2018-09-29T02:33:00.736Z,0.00
2018-09-29T02:34:00.770Z,0.00
2018-09-29T02:35:00.799Z,0.00
2018-09-29T02:36:00.832Z,0.00
2018-09-29T02:37:00.866Z,0.00
2018-09-29T02:38:00.896Z,0.00
2018-09-29T02:39:00.928Z,0.00
2018-09-29T02:40:00.959Z,0.00
2018-09-29T02:41:00.990Z,0.00
2018-09-29T02:42:01.024Z,0.00
2018-09-29T02:43:01.058Z,0.00
2018-09-29T02:44:01.093Z,0.00
2018-09-29T02:45:01.120Z,0.00
2018-09-29T02:46:01.151Z,0.00
2018-09-29T02:47:01.183Z,0.00
2018-09-29T02:48:01.232Z,0.00
2018-09-29T02:49:01.246Z,0.00
2018-09-29T02:50:01.288Z,0.00
2018-09-29T02:51:01.308Z,0.00
2018-09-29T02:52:01.341Z,0.00
2018-09-29T02:53:01.373Z,0.00
2018-09-29T02:54:01.404Z,0.00
2018-09-29T02:55:01.437Z,0.00
2018-09-29T02:56:01.468Z,0.00
2018-09-29T02:57:01.502Z,0.00
2018-09-29T02:58:01.533Z,0.00
2018-09-29T02:59:01.563Z,0.00
2018-09-29T03:00:01.596Z,0.00
2018-09-29T03:01:01.627Z,0.00
2018-09-29T03:02:01.661Z,0.00
2018-09-29T03:03:01.690Z,0.00
2018-09-29T03:04:01.726Z,0.00
2018-09-29T03:05:01.775Z,0.00
2018-09-29T03:06:01.789Z,0.00
2018-09-29T03:07:01.849Z,0.00
2018-09-29T03:08:01.860Z,0.00
2018-09-29T03:09:01.881Z,0.00
2018-09-29T03:10:01.913Z,0.00
2018-09-29T03:11:01.945Z,0.00
2018-09-29T03:12:01.976Z,0.00
2018-09-29T03:13:02.008Z,0.00
2018-09-29T03:14:02.040Z,0.00
2018-09-29T03:15:02.071Z,0.00
2018-09-29T03:16:02.104Z,0.00
2018-09-29T03:17:02.137Z,0.00
2018-09-29T03:18:02.167Z,0.00
2018-09-29T03:19:02.234Z,0.00
2018-09-29T03:20:02.231Z,0.00
2018-09-29T03:21:02.262Z,0.00
2018-09-29T03:22:02.294Z,0.00
2018-09-29T03:23:02.351Z,0.00
2018-09-29T03:24:02.357Z,0.00
2018-09-29T03:25:02.389Z,0.00
2018-09-29T03:26:02.420Z,0.00
2018-09-29T03:27:02.456Z,0.00
2018-09-29T03:28:02.483Z,0.00
2018-09-29T03:29:02.517Z,0.00
2018-09-29T03:30:02.558Z,0.00
2018-09-29T03:31:02.582Z,0.00
2018-09-29T03:32:02.612Z,0.00
2018-09-29T03:33:02.642Z,0.00
2018-09-29T03:34:02.677Z,0.00
2018-09-29T03:35:02.705Z,0.00
2018-09-29T03:36:02.742Z,0.00
2018-09-29T03:37:02.772Z,0.00
2018-09-29T03:38:02.800Z,0.00
2018-09-29T03:39:02.832Z,0.00
2018-09-29T03:40:02.865Z,0.00
2018-09-29T03:41:02.895Z,0.00
2018-09-29T03:42:02.927Z,0.00
2018-09-29T03:43:02.961Z,0.00
2018-09-29T03:44:02.989Z,0.00
2018-09-29T03:45:03.021Z,0.00
2018-09-29T03:46:03.054Z,0.00
2018-09-29T03:47:03.083Z,0.00
2018-09-29T03:48:03.116Z,0.00
2018-09-29T03:49:03.147Z,0.00
2018-09-29T03:50:03.180Z,0.00
2018-09-29T03:51:03.209Z,0.00
2018-09-29T03:52:03.242Z,0.00
2018-09-29T03:53:03.273Z,0.00
2018-09-29T03:54:03.305Z,0.00
2018-09-29T03:55:03.335Z,0.00
2018-09-29T03:56:03.368Z,0.00
2018-09-29T03:57:03.399Z,0.00
2018-09-29T03:58:03.430Z,0.00
2018-09-29T03:59:03.460Z,0.00
2018-09-29T04:00:03.493Z,0.00
2018-09-29T04:01:03.524Z,0.00
2018-09-29T04:02:03.554Z,0.00
2018-09-29T04:03:03.584Z,0.00
2018-09-29T04:04:03.619Z,0.00
2018-09-29T04:05:03.657Z,0.00
2018-09-29T04:06:03.682Z,0.00
2018-09-29T04:07:03.710Z,0.00
2018-09-29T04:08:03.743Z,0.00
2018-09-29T04:09:03.774Z,0.00
2018-09-29T04:10:03.804Z,0.00
2018-09-29T04:11:03.834Z,0.00
2018-09-29T04:12:03.867Z,0.00
2018-09-29T04:13:03.899Z,0.00
2018-09-29T04:14:03.930Z,0.00
2018-09-29T04:15:03.959Z,0.00
2018-09-29T04:16:03.989Z,0.00
2018-09-29T04:17:04.022Z,0.00
2018-09-29T04:18:04.054Z,0.00
2018-09-29T04:19:04.083Z,0.00
2018-09-29T04:20:04.113Z,0.00
2018-09-29T04:21:04.145Z,0.00
2018-09-29T04:22:04.176Z,0.00
2018-09-29T04:23:04.208Z,0.00
2018-09-29T04:24:04.238Z,0.00
2018-09-29T04:25:04.269Z,0.00
2018-09-29T04:26:04.300Z,0.00
2018-09-29T04:27:04.336Z,0.00
2018-09-29T04:28:04.363Z,0.00
2018-09-29T04:29:04.392Z,0.00
2018-09-29T04:30:04.425Z,0.00
2018-09-29T04:31:04.454Z,0.00
2018-09-29T04:32:04.485Z,0.00
2018-09-29T04:33:04.516Z,0.00
2018-09-29T04:34:04.548Z,0.00
2018-09-29T04:35:04.578Z,0.00
2018-09-29T04:36:04.609Z,0.00
2018-09-29T04:37:04.642Z,0.00
2018-09-29T04:38:04.670Z,0.00
2018-09-29T04:39:04.701Z,0.00
2018-09-29T04:40:04.734Z,0.00
2018-09-29T04:41:04.762Z,0.00
2018-09-29T04:42:04.793Z,0.00
2018-09-29T04:43:04.833Z,0.00
2018-09-29T04:44:04.855Z,0.00
2018-09-29T04:45:04.886Z,0.00
2018-09-29T04:46:04.923Z,0.00
2018-09-29T04:47:04.947Z,0.00
2018-09-29T04:48:04.979Z,0.00
2018-09-29T04:49:05.032Z,0.00
2018-09-29T04:50:05.040Z,0.00
2018-09-29T04:51:05.070Z,0.00
2018-09-29T04:52:05.102Z,0.00
2018-09-29T04:53:05.133Z,0.00
2018-09-29T04:54:05.164Z,0.00
2018-09-29T04:55:05.195Z,0.00
2018-09-29T04:56:05.225Z,0.00
2018-09-29T04:57:05.255Z,0.00
2018-09-29T04:58:05.287Z,0.00
2018-09-29T04:59:05.316Z,0.00
2018-09-29T05:00:05.348Z,0.00
2018-09-29T05:01:05.381Z,0.00
2018-09-29T05:02:05.412Z,0.00
2018-09-29T05:03:05.441Z,0.00
2018-09-29T05:04:05.473Z,0.00
2018-09-29T05:05:05.506Z,0.00
2018-09-29T05:06:05.534Z,0.00
2018-09-29T05:07:05.564Z,0.00
2018-09-29T05:08:05.595Z,0.00
2018-09-29T05:09:05.626Z,0.00
2018-09-29T05:10:05.659Z,0.00
2018-09-29T05:11:05.688Z,0.00
2018-09-29T05:12:05.719Z,0.00
2018-09-29T05:13:05.749Z,0.00
2018-09-29T05:14:05.867Z,0.00
2018-09-29T05:15:05.812Z,0.00
2018-09-29T05:16:05.844Z,0.00
2018-09-29T05:17:05.874Z,0.00
2018-09-29T05:18:05.910Z,0.00
2018-09-29T05:19:05.940Z,5.63
2018-09-29T05:20:05.971Z,5.63
2018-09-29T05:21:05.998Z,5.63
2018-09-29T05:22:06.030Z,5.63
2018-09-29T05:23:06.092Z,5.63
2018-09-29T05:24:06.092Z,5.63
2018-09-29T05:25:06.127Z,5.63
2018-09-29T05:26:06.153Z,5.63
2018-09-29T05:27:06.185Z,11.25
2018-09-29T05:28:06.218Z,11.25
2018-09-29T05:29:06.246Z,11.25
2018-09-29T05:30:06.278Z,11.25
2018-09-29T05:31:06.307Z,11.25
2018-09-29T05:32:06.340Z,16.88
2018-09-29T05:33:06.372Z,16.88
2018-09-29T05:34:06.401Z,16.88
2018-09-29T05:35:06.433Z,16.88
2018-09-29T05:36:06.492Z,22.50
2018-09-29T05:37:06.494Z,22.50
2018-09-29T05:38:06.525Z,22.50
2018-09-29T05:39:06.555Z,28.13
2018-09-29T05:40:06.590Z,28.13
2018-09-29T05:41:06.621Z,28.13
2018-09-29T05:42:06.650Z,33.75
2018-09-29T05:43:06.679Z,33.75
2018-09-29T05:44:06.710Z,33.75
2018-09-29T05:45:06.743Z,39.38
2018-09-29T05:46:06.773Z,39.38
2018-09-29T05:47:06.804Z,45.00
2018-09-29T05:48:06.842Z,45.00
2018-09-29T05:49:06.866Z,45.00
2018-09-29T05:50:06.897Z,45.00
2018-09-29T05:51:06.927Z,50.63
2018-09-29T05:52:06.958Z,50.63
2018-09-29T05:53:06.990Z,50.63
2018-09-29T05:54:07.023Z,56.25
2018-09-29T05:55:07.051Z,56.25
2018-09-29T05:56:07.082Z,56.25
2018-09-29T05:57:07.117Z,61.88
2018-09-29T05:58:07.145Z,61.88
2018-09-29T05:59:07.180Z,61.88
2018-09-29T06:00:07.275Z,61.88
2018-09-29T06:01:07.238Z,67.50
2018-09-29T06:02:07.272Z,67.50
2018-09-29T06:03:07.301Z,67.50
2018-09-29T06:04:07.333Z,73.13
2018-09-29T06:05:07.362Z,73.13
2018-09-29T06:06:07.394Z,73.13
2018-09-29T06:07:07.513Z,73.13
2018-09-29T06:08:07.455Z,78.75
2018-09-29T06:09:07.485Z,78.75
2018-09-29T06:10:07.534Z,84.38
2018-09-29T06:11:07.547Z,84.38
2018-09-29T06:12:07.582Z,90.00
2018-09-29T06:13:07.667Z,90.00
2018-09-29T06:14:07.642Z,95.63
2018-09-29T06:15:07.673Z,95.63
2018-09-29T06:16:07.702Z,101.25
2018-09-29T06:17:07.734Z,101.25
2018-09-29T06:18:07.766Z,101.25
2018-09-29T06:19:07.797Z,101.25
2018-09-29T06:20:07.828Z,106.88
2018-09-29T06:21:07.860Z,106.88
2018-09-29T06:22:07.890Z,106.88
2018-09-29T06:23:07.920Z,106.88
2018-09-29T06:24:07.952Z,106.88
2018-09-29T06:25:07.991Z,106.88
2018-09-29T06:26:08.014Z,112.50
2018-09-29T06:27:08.044Z,112.50
2018-09-29T06:28:08.087Z,112.50
2018-09-29T06:29:08.107Z,112.50
2018-09-29T06:30:08.138Z,118.13
2018-09-29T06:31:08.170Z,123.75
2018-09-29T06:32:08.200Z,123.75
2018-09-29T06:33:08.232Z,129.38
2018-09-29T06:34:08.280Z,123.75
2018-09-29T06:35:08.293Z,123.75
2018-09-29T06:36:08.326Z,129.38
2018-09-29T06:37:08.358Z,129.38
2018-09-29T06:38:08.390Z,129.38
2018-09-29T06:39:08.420Z,129.38
2018-09-29T06:40:08.449Z,129.38
2018-09-29T06:41:08.481Z,129.38
2018-09-29T06:42:08.513Z,129.38
2018-09-29T06:43:08.543Z,129.38
2018-09-29T06:44:08.575Z,129.38
2018-09-29T06:45:08.607Z,135.00
2018-09-29T06:46:08.638Z,135.00
2018-09-29T06:47:08.669Z,135.00
2018-09-29T06:48:08.733Z,140.63
2018-09-29T06:49:08.732Z,140.63
2018-09-29T06:50:08.764Z,146.25
2018-09-29T06:51:08.794Z,146.25
2018-09-29T06:52:08.826Z,151.88
2018-09-29T06:53:08.857Z,157.50
2018-09-29T06:54:08.889Z,157.50
2018-09-29T06:55:08.919Z,163.13
2018-09-29T06:56:08.952Z,168.75
2018-09-29T06:57:08.984Z,168.75
2018-09-29T06:58:09.015Z,168.75
2018-09-29T06:59:09.045Z,174.38
2018-09-29T07:00:09.078Z,174.38
2018-09-29T07:01:09.109Z,174.38
2018-09-29T07:02:09.142Z,180.00
2018-09-29T07:03:09.253Z,185.63
2018-09-29T07:04:09.205Z,185.63
2018-09-29T07:05:09.236Z,185.63
2018-09-29T07:06:09.267Z,191.25
2018-09-29T07:07:09.300Z,191.25
2018-09-29T07:08:09.330Z,196.88
2018-09-29T07:09:09.363Z,202.50
2018-09-29T07:10:09.394Z,202.50
2018-09-29T07:11:09.428Z,202.50
2018-09-29T07:12:09.458Z,202.50
2018-09-29T07:13:09.489Z,202.50
2018-09-29T07:14:09.523Z,208.13
2018-09-29T07:15:09.555Z,202.50
2018-09-29T07:16:09.584Z,208.13
2018-09-29T07:17:09.618Z,208.13
2018-09-29T07:18:09.694Z,208.13
2018-09-29T07:19:09.680Z,208.13
2018-09-29T07:20:09.713Z,202.50
2018-09-29T07:21:09.748Z,202.50
2018-09-29T07:22:09.778Z,208.13
2018-09-29T07:23:09.810Z,219.38
2018-09-29T07:24:09.847Z,219.38
2018-09-29T07:25:09.876Z,225.00
2018-09-29T07:26:09.907Z,225.00
2018-09-29T07:27:09.940Z,225.00
2018-09-29T07:28:09.973Z,225.00
2018-09-29T07:29:10.004Z,225.00
2018-09-29T07:30:10.037Z,230.63
2018-09-29T07:31:10.070Z,230.63
2018-09-29T07:32:10.103Z,236.25
2018-09-29T07:33:10.135Z,236.25
2018-09-29T07:34:10.168Z,236.25
2018-09-29T07:35:10.200Z,230.63
2018-09-29T07:36:10.233Z,241.88
2018-09-29T07:37:10.267Z,241.88
2018-09-29T07:38:10.304Z,241.88
2018-09-29T07:39:10.332Z,241.88
2018-09-29T07:40:10.366Z,241.88
2018-09-29T07:41:10.399Z,241.88
2018-09-29T07:42:10.432Z,253.13
2018-09-29T07:43:10.465Z,253.13
2018-09-29T07:44:10.498Z,253.13
2018-09-29T07:45:10.533Z,253.13
2018-09-29T07:46:10.566Z,258.75
2018-09-29T07:47:10.600Z,258.75
2018-09-29T07:48:10.632Z,258.75
2018-09-29T07:49:10.720Z,264.38
2018-09-29T07:50:10.699Z,270.00
2018-09-29T07:51:10.731Z,270.00
2018-09-29T07:52:10.766Z,275.63
2018-09-29T07:53:10.801Z,275.63
2018-09-29T07:54:10.833Z,286.88
2018-09-29T07:55:10.867Z,286.88
2018-09-29T07:56:10.909Z,286.88
2018-09-29T07:57:10.936Z,292.50
2018-09-29T07:58:10.970Z,298.13
2018-09-29T07:59:11.001Z,298.13
2018-09-29T08:00:11.040Z,303.75
2018-09-29T08:01:11.071Z,303.75
2018-09-29T08:02:11.106Z,303.75
2018-09-29T08:03:11.139Z,303.75
2018-09-29T08:04:11.173Z,303.75
2018-09-29T08:05:11.210Z,303.75
2018-09-29T08:06:11.244Z,309.38
2018-09-29T08:07:11.277Z,303.75
2018-09-29T08:08:11.313Z,298.13
2018-09-29T08:09:11.347Z,315.00
2018-09-29T08:10:11.381Z,298.13
2018-09-29T08:11:11.415Z,303.75
2018-09-29T08:12:11.459Z,315.00
2018-09-29T08:13:11.486Z,320.63
2018-09-29T08:14:11.521Z,326.25
2018-09-29T08:15:11.556Z,331.88
2018-09-29T08:16:11.591Z,337.50
2018-09-29T08:17:11.627Z,343.13
2018-09-29T08:18:11.662Z,348.75
2018-09-29T08:19:11.696Z,365.63
2018-09-29T08:20:11.732Z,393.75
2018-09-29T08:21:11.767Z,438.75
2018-09-29T08:22:11.803Z,472.50
2018-09-29T08:23:11.838Z,506.25
2018-09-29T08:24:11.886Z,528.75
2018-09-29T08:25:11.909Z,658.13
2018-09-29T08:26:11.945Z,967.50
2018-09-29T08:27:11.981Z,1125.00
2018-09-29T08:28:12.017Z,1141.88
2018-09-29T08:29:12.053Z,1102.50
2018-09-29T08:30:12.091Z,1119.38
2018-09-29T08:31:12.125Z,1113.75
2018-09-29T08:32:12.185Z,1113.75
2018-09-29T08:33:12.200Z,1102.50
2018-09-29T08:34:12.261Z,1136.25
2018-09-29T08:35:12.274Z,1136.25
2018-09-29T08:36:12.310Z,1119.38
2018-09-29T08:37:12.348Z,1226.25
2018-09-29T08:38:12.386Z,1237.50
2018-09-29T08:39:12.422Z,1265.63
2018-09-29T08:40:12.461Z,1321.88
2018-09-29T08:41:12.500Z,1305.00
2018-09-29T08:42:12.537Z,1344.38
2018-09-29T08:43:12.576Z,1395.00
2018-09-29T08:44:12.636Z,1350.00
2018-09-29T08:45:12.654Z,1411.88
2018-09-29T08:46:12.692Z,1434.38
2018-09-29T08:47:12.731Z,1276.88
2018-09-29T08:48:12.770Z,1051.88
2018-09-29T08:49:12.810Z,973.13
2018-09-29T08:50:12.849Z,933.75
2018-09-29T08:51:12.888Z,911.25
2018-09-29T08:52:12.928Z,900.00
2018-09-29T08:53:13.001Z,905.63
2018-09-29T08:54:13.010Z,900.00
2018-09-29T08:55:13.050Z,877.50
2018-09-29T08:56:13.090Z,883.13
2018-09-29T08:57:13.132Z,883.13
2018-09-29T08:58:13.171Z,945.00
2018-09-29T08:59:13.211Z,945.00
2018-09-29T09:00:13.252Z,984.38
2018-09-29T09:01:13.294Z,1074.38
2018-09-29T09:02:13.337Z,1254.38
2018-09-29T09:03:13.377Z,1451.25
2018-09-29T09:04:13.416Z,1535.63
2018-09-29T09:05:13.459Z,1569.38
2018-09-29T09:06:13.499Z,1608.75
2018-09-29T09:07:13.540Z,1591.88
2018-09-29T09:08:13.581Z,1670.63
2018-09-29T09:09:13.638Z,1653.75
2018-09-29T09:10:13.667Z,1665.00
2018-09-29T09:11:13.706Z,1676.25
2018-09-29T09:12:13.749Z,1698.75
2018-09-29T09:13:13.791Z,1704.38
2018-09-29T09:14:13.834Z,1698.75
2018-09-29T09:15:13.875Z,1698.75
2018-09-29T09:16:13.917Z,1749.38
2018-09-29T09:17:13.960Z,1766.25
2018-09-29T09:18:14.002Z,1800.00
2018-09-29T09:19:14.049Z,1771.88
2018-09-29T09:20:14.108Z,1771.88
2018-09-29T09:21:14.131Z,1777.50
2018-09-29T09:22:14.173Z,1794.38
2018-09-29T09:23:14.257Z,1788.75
2018-09-29T09:24:14.319Z,1794.38
2018-09-29T09:25:14.303Z,1828.13
2018-09-29T09:26:14.345Z,1766.25
2018-09-29T09:27:14.412Z,1783.13
2018-09-29T09:28:14.432Z,1828.13
2018-09-29T09:29:14.475Z,1850.63
2018-09-29T09:30:14.575Z,1850.63
2018-09-29T09:31:14.563Z,1800.00
2018-09-29T09:32:14.607Z,1833.75
2018-09-29T09:33:14.651Z,1906.88
2018-09-29T09:34:14.696Z,1895.63
2018-09-29T09:35:14.739Z,1878.75
2018-09-29T09:36:14.785Z,1985.63
2018-09-29T09:37:14.829Z,2002.50
2018-09-29T09:38:14.874Z,2036.25
2018-09-29T09:39:14.916Z,1974.38
2018-09-29T09:40:14.962Z,1951.88
2018-09-29T09:41:15.011Z,1951.88
2018-09-29T09:42:15.052Z,1912.50
2018-09-29T09:43:15.096Z,1968.75
2018-09-29T09:44:15.142Z,2053.13
2018-09-29T09:45:15.187Z,1918.13
2018-09-29T09:46:15.232Z,1985.63
2018-09-29T09:47:15.277Z,1980.00
2018-09-29T09:48:15.322Z,2002.50
2018-09-29T09:49:15.368Z,2008.13
2018-09-29T09:50:15.412Z,2058.75
2018-09-29T09:51:15.457Z,2115.00
2018-09-29T09:52:15.503Z,2148.75
2018-09-29T09:53:15.549Z,2165.63
2018-09-29T09:54:15.594Z,2188.13
2018-09-29T09:55:15.639Z,2154.38
2018-09-29T09:56:15.684Z,2160.00
2018-09-29T09:57:15.730Z,2182.50
2018-09-29T09:58:15.776Z,2261.25
2018-09-29T09:59:15.821Z,2182.50
2018-09-29T10:00:15.867Z,2086.88
2018-09-29T10:01:15.913Z,2137.50
2018-09-29T10:02:15.960Z,2081.25
2018-09-29T10:03:16.005Z,2109.38
2018-09-29T10:04:16.276Z,2131.88
2018-09-29T10:05:16.323Z,2154.38
2018-09-29T10:06:16.145Z,2165.63
2018-09-29T10:07:16.191Z,2227.50
2018-09-29T10:08:16.237Z,2233.13
2018-09-29T10:09:16.283Z,2120.63
2018-09-29T10:10:16.331Z,2165.63
2018-09-29T10:11:16.383Z,2227.50
2018-09-29T10:12:16.423Z,2148.75
2018-09-29T10:13:16.470Z,2126.25
2018-09-29T10:14:16.517Z,2306.25
2018-09-29T10:15:16.565Z,2373.75
2018-09-29T10:16:16.611Z,2300.63
2018-09-29T10:17:16.705Z,2261.25
2018-09-29T10:18:16.705Z,2255.63
2018-09-29T10:19:16.753Z,2328.75
2018-09-29T10:21:16.852Z,2328.75
2018-09-29T10:22:16.894Z,2340.00
2018-09-29T10:23:16.942Z,2317.50
2018-09-29T10:24:16.988Z,2323.13
2018-09-29T10:25:17.038Z,2334.38
2018-09-29T10:26:17.085Z,2407.50
2018-09-29T10:27:17.131Z,2463.75
2018-09-29T10:28:17.179Z,2508.75
2018-09-29T10:29:17.228Z,2469.38
2018-09-29T10:30:17.278Z,2463.75
2018-09-29T10:31:17.321Z,2452.50
2018-09-29T10:32:17.370Z,2385.00
2018-09-29T10:33:17.418Z,2278.13
2018-09-29T10:34:17.485Z,2306.25
2018-09-29T10:35:17.513Z,2182.50
2018-09-29T10:36:17.631Z,2244.38
2018-09-29T10:37:17.610Z,2334.38
2018-09-29T10:38:17.658Z,2311.88
2018-09-29T10:39:17.709Z,2221.88
2018-09-29T10:40:17.754Z,2199.38
2018-09-29T10:41:17.803Z,2205.00
2018-09-29T10:42:17.852Z,2210.63
2018-09-29T10:43:17.898Z,2300.63
2018-09-29T10:44:18.043Z,2311.88
2018-09-29T10:45:17.995Z,2345.63
2018-09-29T10:46:18.066Z,2340.00
2018-09-29T10:47:18.091Z,2317.50
2018-09-29T10:48:18.469Z,2244.38
2018-09-29T10:49:18.188Z,2233.13
2018-09-29T10:50:18.488Z,2272.50
2018-09-29T10:51:18.284Z,2210.63
2018-09-29T10:53:18.404Z,2081.25
2018-09-29T10:55:18.481Z,2233.13
2018-09-29T10:56:18.527Z,2041.88
2018-09-29T10:57:18.576Z,2244.38
2018-09-29T10:59:18.671Z,2300.63
2018-09-29T11:00:18.721Z,2103.75
2018-09-29T11:01:18.769Z,2025.00
2018-09-29T11:02:18.817Z,2025.00
2018-09-29T11:03:18.864Z,2143.13
2018-09-29T11:04:18.929Z,2115.00
2018-09-29T11:05:18.961Z,2148.75
2018-09-29T11:06:19.011Z,2165.63
2018-09-29T11:08:19.116Z,2244.38
2018-09-29T11:09:19.155Z,2306.25
2018-09-29T11:10:19.204Z,2266.88
2018-09-29T11:11:19.250Z,2221.88
2018-09-29T11:12:19.298Z,2171.25
2018-09-29T11:13:19.347Z,2182.50
2018-09-29T11:14:19.418Z,2109.38
2018-09-29T11:20:32.459Z,2328.75
2018-09-29T11:22:32.555Z,2430.00
2018-09-29T11:23:32.605Z,2379.38
2018-09-29T11:24:36.084Z,2328.75
2018-09-29T11:25:32.746Z,2306.25
2018-09-29T11:26:32.976Z,2317.50
2018-09-29T11:27:32.818Z,2424.38
2018-09-29T11:28:32.847Z,2486.25
2018-09-29T11:29:32.917Z,2418.75
2018-09-29T11:30:32.946Z,2424.38
2018-09-29T11:31:32.993Z,2430.00
2018-09-29T11:32:33.041Z,2452.50
2018-09-29T11:34:33.139Z,2458.13
2018-09-29T11:35:33.187Z,2480.63
2018-09-29T11:36:33.237Z,2486.25
2018-09-29T11:37:33.285Z,2424.38
2018-09-29T11:38:33.332Z,2525.63
2018-09-29T11:39:33.427Z,2638.13
2018-09-29T11:40:33.482Z,2683.13
2018-09-29T11:41:33.478Z,2649.38
2018-09-29T11:42:33.527Z,2671.88
2018-09-29T11:43:33.577Z,2745.00
2018-09-29T11:44:33.638Z,2756.25
2018-09-29T11:45:33.674Z,2722.50
2018-09-29T11:46:33.722Z,2756.25
2018-09-29T11:47:33.771Z,2694.38
2018-09-29T11:48:33.824Z,2604.38
2018-09-29T11:49:33.867Z,2660.63
2018-09-29T11:50:33.916Z,2593.13
2018-09-29T11:51:33.965Z,2593.13
2018-09-29T11:52:34.015Z,2671.88
2018-09-29T11:53:34.061Z,2649.38
2018-09-29T11:54:34.110Z,2536.88
2018-09-29T11:55:34.160Z,2520.00
2018-09-29T11:56:34.459Z,2525.63
2018-09-29T11:57:34.255Z,2581.88
2018-09-29T11:58:34.305Z,2593.13
2018-09-29T11:59:34.354Z,2581.88
2018-09-29T12:00:34.403Z,2559.38
2018-09-29T12:01:34.450Z,2598.75
2018-09-29T12:02:34.499Z,2632.50
2018-09-29T12:03:34.551Z,2576.25
2018-09-29T12:04:34.597Z,2559.38
2018-09-29T12:05:34.646Z,2604.38
2018-09-29T12:06:34.696Z,2497.50
2018-09-29T12:07:34.765Z,2621.25
2018-09-29T12:08:34.793Z,2610.00
2018-09-29T12:09:34.840Z,2565.00
2018-09-29T12:10:34.893Z,2531.25
2018-09-29T12:11:34.940Z,2581.88
2018-09-29T12:12:34.989Z,2570.63
2018-09-29T12:13:35.037Z,2587.50
2018-09-29T12:14:35.086Z,2570.63
2018-09-29T12:15:35.138Z,2598.75
2018-09-29T12:16:35.184Z,2536.88
2018-09-29T12:17:35.231Z,2486.25
2018-09-29T12:18:35.281Z,2531.25
2018-09-29T12:19:35.336Z,2536.88
2018-09-29T12:20:35.380Z,2610.00
2018-09-29T12:21:35.427Z,2593.13
2018-09-29T12:22:35.474Z,2576.25
2018-09-29T12:23:35.523Z,2705.63
2018-09-29T12:24:35.572Z,2711.25
2018-09-29T12:25:35.621Z,2722.50
2018-09-29T12:26:35.668Z,2728.13
2018-09-29T12:27:35.719Z,2688.75
2018-09-29T12:28:35.767Z,2688.75
2018-09-29T12:29:35.851Z,2700.00
2018-09-29T12:30:35.864Z,2722.50
2018-09-29T12:31:35.912Z,2716.88
2018-09-29T12:32:35.961Z,2615.63
2018-09-29T12:33:36.010Z,2610.00
2018-09-29T12:34:36.057Z,2688.75
2018-09-29T12:35:36.130Z,2716.88
2018-09-29T12:36:36.158Z,2700.00
2018-09-29T12:37:36.355Z,2784.38
2018-09-29T12:38:36.255Z,2801.25
2018-09-29T12:39:36.306Z,2790.00
2018-09-29T12:40:36.354Z,2739.38
2018-09-29T12:41:36.402Z,2705.63
2018-09-29T12:42:36.459Z,2722.50
2018-09-29T12:43:36.526Z,2705.63
2018-09-29T12:44:36.633Z,2756.25
2018-09-29T12:45:36.633Z,2750.63
2018-09-29T12:46:36.654Z,2671.88
2018-09-29T12:47:36.718Z,2610.00
2018-09-29T12:48:36.751Z,2604.38
2018-09-29T12:49:36.801Z,2649.38
2018-09-29T12:50:36.855Z,2666.25
2018-09-29T12:51:37.022Z,2649.38
2018-09-29T12:52:36.952Z,2660.63
2018-09-29T12:53:37.004Z,2632.50
2018-09-29T12:54:37.053Z,2553.75
2018-09-29T12:55:37.103Z,2491.88